sensor_id;sensor_type;location;lat;lon;timestamp;P1;durP1;ratioP1;P2;durP2;ratioP2
14377;SDS011;7272;53.668;9.578;2022-09-20T00:02:20;8.67;;;2.87;;
14377;SDS011;7272;53.668;9.578;2022-09-20T00:05:22;4.40;;;2.10;;
14377;SDS011;7272;53.668;9.578;2022-09-20T00:08:24;7.00;;;2.03;;
14377;SDS011;7272;53.668;9.578;2022-09-20T00:11:28;7.10;;;2.80;;
14377;SDS011;7272;53.668;9.578;2022-09-20T00:14:31;5.30;;;2.47;;
14377;SDS011;7272;53.668;9.578;2022-09-20T00:17:33;6.83;;;2.80;;
14377;SDS011;7272;53.668;9.578;2022-09-20T00:20:35;5.40;;;2.50;;
14377;SDS011;7272;53.668;9.578;2022-09-20T00:23:37;10.17;;;2.83;;
14377;SDS011;7272;53.668;9.578;2022-09-20T00:26:40;6.63;;;2.80;;
14377;SDS011;7272;53.668;9.578;2022-09-20T00:29:42;7.40;;;2.77;;
14377;SDS011;7272;53.668;9.578;2022-09-20T00:32:44;7.70;;;2.67;;
14377;SDS011;7272;53.668;9.578;2022-09-20T00:35:46;6.17;;;2.40;;
14377;SDS011;7272;53.668;9.578;2022-09-20T00:38:48;5.47;;;2.80;;
14377;SDS011;7272;53.668;9.578;2022-09-20T00:41:55;7.57;;;2.60;;
14377;SDS011;7272;53.668;9.578;2022-09-20T00:44:58;5.87;;;3.03;;
14377;SDS011;7272;53.668;9.578;2022-09-20T00:48:02;5.72;;;3.28;;
14377;SDS011;7272;53.668;9.578;2022-09-20T00:51:11;5.85;;;3.50;;
14377;SDS011;7272;53.668;9.578;2022-09-20T00:54:17;5.93;;;2.77;;
14377;SDS011;7272;53.668;9.578;2022-09-20T00:57:23;6.93;;;2.37;;
14377;SDS011;7272;53.668;9.578;2022-09-20T01:00:25;5.13;;;1.90;;
14377;SDS011;7272;53.668;9.578;2022-09-20T01:03:28;4.50;;;1.93;;
14377;SDS011;7272;53.668;9.578;2022-09-20T01:06:32;3.97;;;1.97;;
14377;SDS011;7272;53.668;9.578;2022-09-20T01:09:35;3.97;;;1.70;;
14377;SDS011;7272;53.668;9.578;2022-09-20T01:12:38;3.17;;;1.57;;
14377;SDS011;7272;53.668;9.578;2022-09-20T01:15:45;3.73;;;1.70;;
14377;SDS011;7272;53.668;9.578;2022-09-20T01:18:48;4.50;;;2.00;;
14377;SDS011;7272;53.668;9.578;2022-09-20T01:21:51;3.57;;;1.90;;
14377;SDS011;7272;53.668;9.578;2022-09-20T01:24:55;5.82;;;2.25;;
14377;SDS011;7272;53.668;9.578;2022-09-20T01:28:05;3.57;;;2.37;;
14377;SDS011;7272;53.668;9.578;2022-09-20T01:31:07;2.17;;;1.50;;
14377;SDS011;7272;53.668;9.578;2022-09-20T01:34:16;2.60;;;1.40;;
14377;SDS011;7272;53.668;9.578;2022-09-20T01:37:23;2.37;;;1.60;;
14377;SDS011;7272;53.668;9.578;2022-09-20T01:40:29;1.90;;;1.30;;
14377;SDS011;7272;53.668;9.578;2022-09-20T01:43:41;1.27;;;1.17;;
14377;SDS011;7272;53.668;9.578;2022-09-20T01:46:49;4.60;;;1.43;;
14377;SDS011;7272;53.668;9.578;2022-09-20T01:50:02;2.70;;;1.60;;
14377;SDS011;7272;53.668;9.578;2022-09-20T01:53:15;2.20;;;1.43;;
14377;SDS011;7272;53.668;9.578;2022-09-20T02:00:13;2.87;;;1.40;;
14377;SDS011;7272;53.668;9.578;2022-09-20T02:03:30;2.30;;;1.80;;
14377;SDS011;7272;53.668;9.578;2022-09-20T02:06:55;2.67;;;1.60;;
14377;SDS011;7272;53.668;9.578;2022-09-20T02:10:18;1.93;;;1.20;;
14377;SDS011;7272;53.668;9.578;2022-09-20T02:13:57;1.50;;;1.30;;
14377;SDS011;7272;53.668;9.578;2022-09-20T02:17:10;2.30;;;1.30;;
14377;SDS011;7272;53.668;9.578;2022-09-20T02:20:17;2.63;;;1.20;;
14377;SDS011;7272;53.668;9.578;2022-09-20T02:23:34;2.83;;;1.20;;
14377;SDS011;7272;53.668;9.578;2022-09-20T02:26:48;2.80;;;1.77;;
14377;SDS011;7272;53.668;9.578;2022-09-20T02:29:59;2.30;;;1.10;;
14377;SDS011;7272;53.668;9.578;2022-09-20T02:33:24;1.40;;;1.30;;
14377;SDS011;7272;53.668;9.578;2022-09-20T02:36:46;1.65;;;1.30;;
14377;SDS011;7272;53.668;9.578;2022-09-20T02:40:01;2.47;;;1.40;;
14377;SDS011;7272;53.668;9.578;2022-09-20T02:43:20;2.70;;;1.33;;
14377;SDS011;7272;53.668;9.578;2022-09-20T02:46:29;1.90;;;1.17;;
14377;SDS011;7272;53.668;9.578;2022-09-20T02:49:43;1.30;;;1.20;;
14377;SDS011;7272;53.668;9.578;2022-09-20T02:52:59;1.77;;;1.63;;
14377;SDS011;7272;53.668;9.578;2022-09-20T02:56:12;1.50;;;1.40;;
14377;SDS011;7272;53.668;9.578;2022-09-20T02:59:23;2.00;;;1.37;;
14377;SDS011;7272;53.668;9.578;2022-09-20T03:02:31;1.30;;;1.20;;
14377;SDS011;7272;53.668;9.578;2022-09-20T03:05:45;2.43;;;1.47;;
14377;SDS011;7272;53.668;9.578;2022-09-20T03:08:57;3.13;;;1.30;;
14377;SDS011;7272;53.668;9.578;2022-09-20T03:12:09;2.07;;;1.30;;
14377;SDS011;7272;53.668;9.578;2022-09-20T03:15:19;2.70;;;2.00;;
14377;SDS011;7272;53.668;9.578;2022-09-20T03:18:33;2.72;;;1.50;;
14377;SDS011;7272;53.668;9.578;2022-09-20T03:21:50;2.20;;;1.37;;
14377;SDS011;7272;53.668;9.578;2022-09-20T03:25:13;1.67;;;1.57;;
14377;SDS011;7272;53.668;9.578;2022-09-20T03:28:32;1.47;;;1.37;;
14377;SDS011;7272;53.668;9.578;2022-09-20T03:31:51;1.80;;;1.13;;
14377;SDS011;7272;53.668;9.578;2022-09-20T03:35:04;1.47;;;1.00;;
14377;SDS011;7272;53.668;9.578;2022-09-20T03:38:20;1.90;;;1.30;;
14377;SDS011;7272;53.668;9.578;2022-09-20T03:41:38;1.87;;;1.40;;
14377;SDS011;7272;53.668;9.578;2022-09-20T03:48:51;2.83;;;1.70;;
14377;SDS011;7272;53.668;9.578;2022-09-20T03:52:08;1.33;;;1.23;;
14377;SDS011;7272;53.668;9.578;2022-09-20T03:55:25;1.80;;;1.70;;
14377;SDS011;7272;53.668;9.578;2022-09-20T03:58:45;1.47;;;1.37;;
14377;SDS011;7272;53.668;9.578;2022-09-20T04:02:13;1.40;;;1.30;;
14377;SDS011;7272;53.668;9.578;2022-09-20T04:05:31;1.63;;;1.40;;
14377;SDS011;7272;53.668;9.578;2022-09-20T04:08:47;1.50;;;1.40;;
14377;SDS011;7272;53.668;9.578;2022-09-20T04:12:08;1.70;;;1.60;;
14377;SDS011;7272;53.668;9.578;2022-09-20T04:15:27;1.80;;;1.70;;
14377;SDS011;7272;53.668;9.578;2022-09-20T04:18:36;1.87;;;1.77;;
14377;SDS011;7272;53.668;9.578;2022-09-20T04:21:45;1.90;;;1.80;;
14377;SDS011;7272;53.668;9.578;2022-09-20T04:24:55;1.90;;;1.80;;
14377;SDS011;7272;53.668;9.578;2022-09-20T04:28:05;1.90;;;1.80;;
14377;SDS011;7272;53.668;9.578;2022-09-20T04:31:16;3.30;;;2.20;;
14377;SDS011;7272;53.668;9.578;2022-09-20T04:34:32;4.50;;;2.43;;
14377;SDS011;7272;53.668;9.578;2022-09-20T04:37:56;2.67;;;1.83;;
14377;SDS011;7272;53.668;9.578;2022-09-20T04:41:16;1.90;;;1.50;;
14377;SDS011;7272;53.668;9.578;2022-09-20T04:48:10;2.77;;;1.37;;
14377;SDS011;7272;53.668;9.578;2022-09-20T04:58:54;2.37;;;1.10;;
14377;SDS011;7272;53.668;9.578;2022-09-20T05:02:14;1.60;;;0.90;;
14377;SDS011;7272;53.668;9.578;2022-09-20T05:05:35;1.27;;;1.00;;
14377;SDS011;7272;53.668;9.578;2022-09-20T05:12:36;2.58;;;1.42;;
14377;SDS011;7272;53.668;9.578;2022-09-20T05:15:56;1.58;;;1.48;;
14377;SDS011;7272;53.668;9.578;2022-09-20T05:19:10;1.63;;;1.20;;
14377;SDS011;7272;53.668;9.578;2022-09-20T05:26:10;3.50;;;1.30;;
14377;SDS011;7272;53.668;9.578;2022-09-20T05:29:23;3.57;;;1.50;;
14377;SDS011;7272;53.668;9.578;2022-09-20T05:32:33;2.50;;;1.30;;
14377;SDS011;7272;53.668;9.578;2022-09-20T05:35:43;1.60;;;1.20;;
14377;SDS011;7272;53.668;9.578;2022-09-20T05:38:55;1.67;;;1.00;;
14377;SDS011;7272;53.668;9.578;2022-09-20T05:42:04;1.17;;;1.07;;
14377;SDS011;7272;53.668;9.578;2022-09-20T05:45:25;3.37;;;1.53;;
14377;SDS011;7272;53.668;9.578;2022-09-20T05:48:45;1.07;;;1.03;;
14377;SDS011;7272;53.668;9.578;2022-09-20T05:52:02;1.52;;;1.40;;
14377;SDS011;7272;53.668;9.578;2022-09-20T05:55:16;1.63;;;1.30;;
14377;SDS011;7272;53.668;9.578;2022-09-20T05:58:43;1.00;;;1.00;;
14377;SDS011;7272;53.668;9.578;2022-09-20T06:01:58;1.70;;;0.93;;
14377;SDS011;7272;53.668;9.578;2022-09-20T06:05:12;1.63;;;1.10;;
14377;SDS011;7272;53.668;9.578;2022-09-20T06:08:30;1.17;;;1.07;;
14377;SDS011;7272;53.668;9.578;2022-09-20T06:11:50;2.40;;;1.27;;
14377;SDS011;7272;53.668;9.578;2022-09-20T06:15:09;1.27;;;1.20;;
14377;SDS011;7272;53.668;9.578;2022-09-20T06:18:19;2.27;;;1.30;;
14377;SDS011;7272;53.668;9.578;2022-09-20T06:21:28;1.50;;;1.00;;
14377;SDS011;7272;53.668;9.578;2022-09-20T06:24:40;2.87;;;1.40;;
14377;SDS011;7272;53.668;9.578;2022-09-20T06:27:48;2.97;;;1.43;;
14377;SDS011;7272;53.668;9.578;2022-09-20T06:30:53;2.13;;;1.50;;
14377;SDS011;7272;53.668;9.578;2022-09-20T06:33:57;3.30;;;1.90;;
14377;SDS011;7272;53.668;9.578;2022-09-20T06:37:06;3.92;;;2.00;;
14377;SDS011;7272;53.668;9.578;2022-09-20T06:40:44;4.10;;;1.47;;
14377;SDS011;7272;53.668;9.578;2022-09-20T06:44:06;3.90;;;1.50;;
14377;SDS011;7272;53.668;9.578;2022-09-20T06:47:08;4.50;;;1.57;;
14377;SDS011;7272;53.668;9.578;2022-09-20T06:50:13;5.07;;;1.47;;
14377;SDS011;7272;53.668;9.578;2022-09-20T06:53:16;1.87;;;1.40;;
14377;SDS011;7272;53.668;9.578;2022-09-20T06:56:22;4.67;;;1.97;;
14377;SDS011;7272;53.668;9.578;2022-09-20T06:59:26;3.57;;;1.43;;
14377;SDS011;7272;53.668;9.578;2022-09-20T07:02:28;3.60;;;1.60;;
14377;SDS011;7272;53.668;9.578;2022-09-20T07:05:30;4.70;;;1.60;;
14377;SDS011;7272;53.668;9.578;2022-09-20T07:08:32;3.03;;;1.40;;
14377;SDS011;7272;53.668;9.578;2022-09-20T07:11:36;4.13;;;1.67;;
14377;SDS011;7272;53.668;9.578;2022-09-20T07:14:38;5.50;;;2.13;;
14377;SDS011;7272;53.668;9.578;2022-09-20T07:17:42;5.28;;;2.10;;
14377;SDS011;7272;53.668;9.578;2022-09-20T07:20:44;3.83;;;1.80;;
14377;SDS011;7272;53.668;9.578;2022-09-20T07:23:47;6.80;;;2.13;;
14377;SDS011;7272;53.668;9.578;2022-09-20T07:26:55;3.13;;;1.50;;
14377;SDS011;7272;53.668;9.578;2022-09-20T07:29:58;4.10;;;2.20;;
14377;SDS011;7272;53.668;9.578;2022-09-20T07:33:01;4.13;;;1.53;;
14377;SDS011;7272;53.668;9.578;2022-09-20T07:36:03;4.13;;;1.63;;
14377;SDS011;7272;53.668;9.578;2022-09-20T07:39:05;5.50;;;2.00;;
14377;SDS011;7272;53.668;9.578;2022-09-20T07:42:09;4.17;;;1.63;;
14377;SDS011;7272;53.668;9.578;2022-09-20T07:45:11;4.33;;;1.83;;
14377;SDS011;7272;53.668;9.578;2022-09-20T07:48:12;3.13;;;1.40;;
14377;SDS011;7272;53.668;9.578;2022-09-20T07:51:15;3.20;;;1.53;;
14377;SDS011;7272;53.668;9.578;2022-09-20T07:54:17;5.07;;;1.97;;
14377;SDS011;7272;53.668;9.578;2022-09-20T07:57:21;6.65;;;2.25;;
14377;SDS011;7272;53.668;9.578;2022-09-20T08:00:23;4.63;;;1.90;;
14377;SDS011;7272;53.668;9.578;2022-09-20T08:03:26;3.90;;;1.87;;
14377;SDS011;7272;53.668;9.578;2022-09-20T08:06:30;5.47;;;2.00;;
14377;SDS011;7272;53.668;9.578;2022-09-20T08:09:32;4.23;;;1.67;;
14377;SDS011;7272;53.668;9.578;2022-09-20T08:12:35;2.97;;;1.80;;
14377;SDS011;7272;53.668;9.578;2022-09-20T08:15:37;4.33;;;1.67;;
14377;SDS011;7272;53.668;9.578;2022-09-20T08:18:43;4.70;;;2.00;;
14377;SDS011;7272;53.668;9.578;2022-09-20T08:21:46;6.97;;;1.60;;
14377;SDS011;7272;53.668;9.578;2022-09-20T08:24:49;5.50;;;1.80;;
14377;SDS011;7272;53.668;9.578;2022-09-20T08:27:53;5.17;;;1.80;;
14377;SDS011;7272;53.668;9.578;2022-09-20T08:30:59;5.07;;;1.60;;
14377;SDS011;7272;53.668;9.578;2022-09-20T08:34:02;4.63;;;1.83;;
14377;SDS011;7272;53.668;9.578;2022-09-20T08:37:05;6.63;;;2.08;;
14377;SDS011;7272;53.668;9.578;2022-09-20T08:40:08;4.40;;;2.05;;
14377;SDS011;7272;53.668;9.578;2022-09-20T08:43:12;5.60;;;1.90;;
14377;SDS011;7272;53.668;9.578;2022-09-20T08:46:16;4.80;;;1.90;;
14377;SDS011;7272;53.668;9.578;2022-09-20T08:49:23;4.33;;;1.90;;
14377;SDS011;7272;53.668;9.578;2022-09-20T08:52:27;4.97;;;2.40;;
14377;SDS011;7272;53.668;9.578;2022-09-20T08:55:32;4.63;;;1.63;;
14377;SDS011;7272;53.668;9.578;2022-09-20T08:58:36;4.23;;;1.40;;
14377;SDS011;7272;53.668;9.578;2022-09-20T09:01:39;5.27;;;1.53;;
14377;SDS011;7272;53.668;9.578;2022-09-20T09:04:42;5.50;;;2.10;;
14377;SDS011;7272;53.668;9.578;2022-09-20T09:07:45;5.67;;;1.70;;
14377;SDS011;7272;53.668;9.578;2022-09-20T09:10:48;5.33;;;1.90;;
14377;SDS011;7272;53.668;9.578;2022-09-20T09:13:56;6.03;;;1.73;;
14377;SDS011;7272;53.668;9.578;2022-09-20T09:17:01;4.40;;;1.77;;
14377;SDS011;7272;53.668;9.578;2022-09-20T09:20:06;4.38;;;1.70;;
14377;SDS011;7272;53.668;9.578;2022-09-20T09:23:21;4.10;;;1.60;;
14377;SDS011;7272;53.668;9.578;2022-09-20T09:26:25;4.10;;;1.63;;
14377;SDS011;7272;53.668;9.578;2022-09-20T09:29:29;5.23;;;1.73;;
14377;SDS011;7272;53.668;9.578;2022-09-20T09:32:31;6.53;;;1.90;;
14377;SDS011;7272;53.668;9.578;2022-09-20T09:35:36;5.03;;;1.70;;
14377;SDS011;7272;53.668;9.578;2022-09-20T09:38:39;5.87;;;1.40;;
14377;SDS011;7272;53.668;9.578;2022-09-20T09:41:44;3.57;;;1.57;;
14377;SDS011;7272;53.668;9.578;2022-09-20T09:44:47;4.30;;;1.60;;
14377;SDS011;7272;53.668;9.578;2022-09-20T09:47:49;6.60;;;1.90;;
14377;SDS011;7272;53.668;9.578;2022-09-20T09:54:15;5.10;;;1.60;;
14377;SDS011;7272;53.668;9.578;2022-09-20T09:57:23;5.03;;;1.63;;
14377;SDS011;7272;53.668;9.578;2022-09-20T10:00:35;5.30;;;1.70;;
14377;SDS011;7272;53.668;9.578;2022-09-20T10:03:45;3.50;;;1.60;;
14377;SDS011;7272;53.668;9.578;2022-09-20T10:06:53;3.37;;;1.43;;
14377;SDS011;7272;53.668;9.578;2022-09-20T10:10:03;4.63;;;2.03;;
14377;SDS011;7272;53.668;9.578;2022-09-20T10:13:17;3.87;;;1.43;;
14377;SDS011;7272;53.668;9.578;2022-09-20T10:16:29;3.63;;;1.77;;
14377;SDS011;7272;53.668;9.578;2022-09-20T10:19:43;2.93;;;1.47;;
14377;SDS011;7272;53.668;9.578;2022-09-20T10:22:56;3.83;;;1.70;;
14377;SDS011;7272;53.668;9.578;2022-09-20T10:26:11;2.97;;;1.40;;
14377;SDS011;7272;53.668;9.578;2022-09-20T10:29:27;5.00;;;1.80;;
14377;SDS011;7272;53.668;9.578;2022-09-20T10:36:14;7.43;;;2.10;;
14377;SDS011;7272;53.668;9.578;2022-09-20T10:39:24;3.43;;;1.67;;
14377;SDS011;7272;53.668;9.578;2022-09-20T10:42:32;4.80;;;2.10;;
14377;SDS011;7272;53.668;9.578;2022-09-20T10:46:02;3.80;;;1.50;;
14377;SDS011;7272;53.668;9.578;2022-09-20T10:49:18;4.37;;;1.50;;
14377;SDS011;7272;53.668;9.578;2022-09-20T10:52:34;4.43;;;1.50;;
14377;SDS011;7272;53.668;9.578;2022-09-20T10:55:49;4.20;;;1.50;;
14377;SDS011;7272;53.668;9.578;2022-09-20T10:59:12;3.77;;;1.50;;
14377;SDS011;7272;53.668;9.578;2022-09-20T11:02:31;3.73;;;1.40;;
14377;SDS011;7272;53.668;9.578;2022-09-20T11:05:48;4.80;;;1.73;;
14377;SDS011;7272;53.668;9.578;2022-09-20T11:09:00;5.13;;;1.40;;
14377;SDS011;7272;53.668;9.578;2022-09-20T11:12:05;3.57;;;1.50;;
14377;SDS011;7272;53.668;9.578;2022-09-20T11:15:13;3.90;;;1.67;;
14377;SDS011;7272;53.668;9.578;2022-09-20T11:18:20;4.27;;;1.70;;
14377;SDS011;7272;53.668;9.578;2022-09-20T11:21:26;4.37;;;1.60;;
14377;SDS011;7272;53.668;9.578;2022-09-20T11:24:33;3.93;;;1.37;;
14377;SDS011;7272;53.668;9.578;2022-09-20T11:27:38;3.30;;;1.80;;
14377;SDS011;7272;53.668;9.578;2022-09-20T11:30:48;3.57;;;1.43;;
14377;SDS011;7272;53.668;9.578;2022-09-20T11:33:55;2.43;;;1.20;;
14377;SDS011;7272;53.668;9.578;2022-09-20T11:37:04;3.60;;;1.70;;
14377;SDS011;7272;53.668;9.578;2022-09-20T11:40:09;3.73;;;1.30;;
14377;SDS011;7272;53.668;9.578;2022-09-20T11:43:16;4.30;;;1.60;;
14377;SDS011;7272;53.668;9.578;2022-09-20T11:46:21;4.10;;;1.60;;
14377;SDS011;7272;53.668;9.578;2022-09-20T11:49:26;3.47;;;1.70;;
14377;SDS011;7272;53.668;9.578;2022-09-20T11:52:46;3.50;;;1.37;;
14377;SDS011;7272;53.668;9.578;2022-09-20T11:55:59;4.28;;;1.63;;
14377;SDS011;7272;53.668;9.578;2022-09-20T11:59:05;3.20;;;1.20;;
14377;SDS011;7272;53.668;9.578;2022-09-20T12:02:21;3.37;;;1.60;;
14377;SDS011;7272;53.668;9.578;2022-09-20T12:05:29;3.37;;;1.40;;
14377;SDS011;7272;53.668;9.578;2022-09-20T12:08:35;3.40;;;1.27;;
14377;SDS011;7272;53.668;9.578;2022-09-20T12:11:39;4.23;;;1.30;;
14377;SDS011;7272;53.668;9.578;2022-09-20T12:14:41;2.70;;;1.37;;
14377;SDS011;7272;53.668;9.578;2022-09-20T12:18:06;3.70;;;1.40;;
14377;SDS011;7272;53.668;9.578;2022-09-20T12:21:15;4.90;;;1.63;;
14377;SDS011;7272;53.668;9.578;2022-09-20T12:24:21;1.33;;;1.00;;
14377;SDS011;7272;53.668;9.578;2022-09-20T12:34:34;4.57;;;1.83;;
14377;SDS011;7272;53.668;9.578;2022-09-20T12:37:36;4.57;;;1.52;;
14377;SDS011;7272;53.668;9.578;2022-09-20T12:44:05;4.50;;;1.50;;
14377;SDS011;7272;53.668;9.578;2022-09-20T12:47:28;2.47;;;1.20;;
14377;SDS011;7272;53.668;9.578;2022-09-20T12:50:32;2.80;;;1.40;;
14377;SDS011;7272;53.668;9.578;2022-09-20T12:53:58;4.50;;;1.90;;
14377;SDS011;7272;53.668;9.578;2022-09-20T12:57:16;4.43;;;1.53;;
14377;SDS011;7272;53.668;9.578;2022-09-20T13:00:27;4.15;;;1.35;;
14377;SDS011;7272;53.668;9.578;2022-09-20T13:03:36;3.70;;;1.53;;
14377;SDS011;7272;53.668;9.578;2022-09-20T13:06:40;2.83;;;1.30;;
14377;SDS011;7272;53.668;9.578;2022-09-20T13:09:42;3.27;;;1.67;;
14377;SDS011;7272;53.668;9.578;2022-09-20T13:12:46;4.97;;;1.43;;
14377;SDS011;7272;53.668;9.578;2022-09-20T13:15:51;2.90;;;1.23;;
14377;SDS011;7272;53.668;9.578;2022-09-20T13:18:56;2.63;;;1.50;;
14377;SDS011;7272;53.668;9.578;2022-09-20T13:22:04;2.65;;;1.35;;
14377;SDS011;7272;53.668;9.578;2022-09-20T13:25:12;2.80;;;1.33;;
14377;SDS011;7272;53.668;9.578;2022-09-20T13:28:20;3.70;;;1.40;;
14377;SDS011;7272;53.668;9.578;2022-09-20T13:31:32;2.53;;;1.17;;
14377;SDS011;7272;53.668;9.578;2022-09-20T13:34:34;3.20;;;1.23;;
14377;SDS011;7272;53.668;9.578;2022-09-20T13:37:37;4.00;;;1.65;;
14377;SDS011;7272;53.668;9.578;2022-09-20T13:40:42;3.35;;;1.35;;
14377;SDS011;7272;53.668;9.578;2022-09-20T13:43:48;3.33;;;1.30;;
14377;SDS011;7272;53.668;9.578;2022-09-20T13:46:51;2.83;;;1.40;;
14377;SDS011;7272;53.668;9.578;2022-09-20T13:49:58;3.83;;;1.30;;
14377;SDS011;7272;53.668;9.578;2022-09-20T13:53:02;2.47;;;1.10;;
14377;SDS011;7272;53.668;9.578;2022-09-20T13:56:16;4.50;;;1.53;;
14377;SDS011;7272;53.668;9.578;2022-09-20T13:59:22;3.57;;;1.43;;
14377;SDS011;7272;53.668;9.578;2022-09-20T14:02:25;2.78;;;1.23;;
14377;SDS011;7272;53.668;9.578;2022-09-20T14:05:30;2.83;;;1.40;;
14377;SDS011;7272;53.668;9.578;2022-09-20T14:08:34;4.60;;;1.17;;
14377;SDS011;7272;53.668;9.578;2022-09-20T14:11:41;3.37;;;1.20;;
14377;SDS011;7272;53.668;9.578;2022-09-20T14:14:44;2.97;;;1.40;;
14377;SDS011;7272;53.668;9.578;2022-09-20T14:17:46;3.80;;;1.30;;
14377;SDS011;7272;53.668;9.578;2022-09-20T14:20:51;2.77;;;1.17;;
14377;SDS011;7272;53.668;9.578;2022-09-20T14:23:55;4.07;;;1.23;;
14377;SDS011;7272;53.668;9.578;2022-09-20T14:27:02;2.97;;;1.33;;
14377;SDS011;7272;53.668;9.578;2022-09-20T14:33:31;2.93;;;1.20;;
14377;SDS011;7272;53.668;9.578;2022-09-20T14:36:34;4.32;;;1.40;;
14377;SDS011;7272;53.668;9.578;2022-09-20T14:39:42;3.97;;;1.67;;
14377;SDS011;7272;53.668;9.578;2022-09-20T14:42:47;4.27;;;1.27;;
14377;SDS011;7272;53.668;9.578;2022-09-20T14:45:53;4.53;;;1.60;;
14377;SDS011;7272;53.668;9.578;2022-09-20T14:52:34;3.42;;;1.50;;
14377;SDS011;7272;53.668;9.578;2022-09-20T14:55:52;3.40;;;1.30;;
14377;SDS011;7272;53.668;9.578;2022-09-20T14:59:03;3.37;;;1.50;;
14377;SDS011;7272;53.668;9.578;2022-09-20T15:02:22;2.37;;;1.10;;
14377;SDS011;7272;53.668;9.578;2022-09-20T15:05:26;2.53;;;1.50;;
14377;SDS011;7272;53.668;9.578;2022-09-20T15:08:28;6.07;;;1.63;;
14377;SDS011;7272;53.668;9.578;2022-09-20T15:11:31;3.72;;;1.30;;
14377;SDS011;7272;53.668;9.578;2022-09-20T15:14:33;2.90;;;1.30;;
14377;SDS011;7272;53.668;9.578;2022-09-20T15:17:37;2.87;;;1.20;;
14377;SDS011;7272;53.668;9.578;2022-09-20T15:20:40;3.60;;;1.23;;
14377;SDS011;7272;53.668;9.578;2022-09-20T15:23:41;3.33;;;1.23;;
14377;SDS011;7272;53.668;9.578;2022-09-20T15:26:43;3.73;;;1.30;;
14377;SDS011;7272;53.668;9.578;2022-09-20T15:29:47;4.22;;;1.60;;
14377;SDS011;7272;53.668;9.578;2022-09-20T15:32:51;3.40;;;1.30;;
14377;SDS011;7272;53.668;9.578;2022-09-20T15:35:53;3.40;;;1.10;;
14377;SDS011;7272;53.668;9.578;2022-09-20T15:38:55;3.87;;;1.20;;
14377;SDS011;7272;53.668;9.578;2022-09-20T15:41:57;3.30;;;1.13;;
14377;SDS011;7272;53.668;9.578;2022-09-20T15:44:59;4.97;;;1.50;;
14377;SDS011;7272;53.668;9.578;2022-09-20T15:48:02;2.58;;;1.40;;
14377;SDS011;7272;53.668;9.578;2022-09-20T15:51:05;4.10;;;1.43;;
14377;SDS011;7272;53.668;9.578;2022-09-20T15:54:11;3.10;;;1.37;;
14377;SDS011;7272;53.668;9.578;2022-09-20T15:57:14;2.63;;;1.30;;
14377;SDS011;7272;53.668;9.578;2022-09-20T16:00:16;3.80;;;1.50;;
14377;SDS011;7272;53.668;9.578;2022-09-20T16:03:20;3.33;;;1.47;;
14377;SDS011;7272;53.668;9.578;2022-09-20T16:06:29;4.65;;;1.27;;
14377;SDS011;7272;53.668;9.578;2022-09-20T16:09:32;3.63;;;1.10;;
14377;SDS011;7272;53.668;9.578;2022-09-20T16:12:35;3.87;;;1.40;;
14377;SDS011;7272;53.668;9.578;2022-09-20T16:15:37;3.40;;;1.27;;
14377;SDS011;7272;53.668;9.578;2022-09-20T16:18:40;3.73;;;1.03;;
14377;SDS011;7272;53.668;9.578;2022-09-20T16:21:59;3.17;;;1.50;;
14377;SDS011;7272;53.668;9.578;2022-09-20T16:25:01;3.33;;;1.38;;
14377;SDS011;7272;53.668;9.578;2022-09-20T16:28:05;3.57;;;1.27;;
14377;SDS011;7272;53.668;9.578;2022-09-20T16:34:33;5.80;;;1.60;;
14377;SDS011;7272;53.668;9.578;2022-09-20T16:37:36;6.07;;;1.40;;
14377;SDS011;7272;53.668;9.578;2022-09-20T16:40:38;4.83;;;1.30;;
14377;SDS011;7272;53.668;9.578;2022-09-20T16:43:40;4.37;;;1.80;;
14377;SDS011;7272;53.668;9.578;2022-09-20T16:46:42;3.13;;;1.50;;
14377;SDS011;7272;53.668;9.578;2022-09-20T16:49:46;3.73;;;1.47;;
14377;SDS011;7272;53.668;9.578;2022-09-20T16:52:49;3.30;;;1.20;;
14377;SDS011;7272;53.668;9.578;2022-09-20T16:55:51;5.93;;;1.50;;
14377;SDS011;7272;53.668;9.578;2022-09-20T16:58:55;4.93;;;1.40;;
14377;SDS011;7272;53.668;9.578;2022-09-20T17:01:57;2.97;;;1.30;;
14377;SDS011;7272;53.668;9.578;2022-09-20T17:05:00;3.87;;;1.33;;
14377;SDS011;7272;53.668;9.578;2022-09-20T17:08:02;4.00;;;1.37;;
14377;SDS011;7272;53.668;9.578;2022-09-20T17:11:05;2.97;;;1.33;;
14377;SDS011;7272;53.668;9.578;2022-09-20T17:14:09;3.97;;;1.43;;
14377;SDS011;7272;53.668;9.578;2022-09-20T17:17:11;4.77;;;1.60;;
14377;SDS011;7272;53.668;9.578;2022-09-20T17:20:14;2.40;;;1.23;;
14377;SDS011;7272;53.668;9.578;2022-09-20T17:23:16;2.60;;;1.30;;
14377;SDS011;7272;53.668;9.578;2022-09-20T17:26:19;3.35;;;1.70;;
14377;SDS011;7272;53.668;9.578;2022-09-20T17:29:23;3.10;;;1.40;;
14377;SDS011;7272;53.668;9.578;2022-09-20T17:32:25;2.57;;;1.60;;
14377;SDS011;7272;53.668;9.578;2022-09-20T17:35:28;2.53;;;1.30;;
14377;SDS011;7272;53.668;9.578;2022-09-20T17:38:31;3.30;;;1.20;;
14377;SDS011;7272;53.668;9.578;2022-09-20T17:41:34;4.03;;;1.40;;
14377;SDS011;7272;53.668;9.578;2022-09-20T17:44:36;4.47;;;1.30;;
14377;SDS011;7272;53.668;9.578;2022-09-20T17:47:38;3.00;;;1.30;;
14377;SDS011;7272;53.668;9.578;2022-09-20T17:50:43;3.92;;;1.80;;
14377;SDS011;7272;53.668;9.578;2022-09-20T17:53:55;2.87;;;1.50;;
14377;SDS011;7272;53.668;9.578;2022-09-20T17:56:57;6.57;;;1.60;;
14377;SDS011;7272;53.668;9.578;2022-09-20T17:59:59;2.67;;;1.60;;
14377;SDS011;7272;53.668;9.578;2022-09-20T18:03:01;2.80;;;1.23;;
14377;SDS011;7272;53.668;9.578;2022-09-20T18:06:11;1.47;;;1.30;;
14377;SDS011;7272;53.668;9.578;2022-09-20T18:09:14;4.33;;;1.57;;
14377;SDS011;7272;53.668;9.578;2022-09-20T18:12:18;3.63;;;2.10;;
14377;SDS011;7272;53.668;9.578;2022-09-20T18:15:20;2.87;;;1.30;;
14377;SDS011;7272;53.668;9.578;2022-09-20T18:18:22;2.90;;;1.30;;
14377;SDS011;7272;53.668;9.578;2022-09-20T18:21:26;3.00;;;1.20;;
14377;SDS011;7272;53.668;9.578;2022-09-20T18:24:29;3.43;;;1.23;;
14377;SDS011;7272;53.668;9.578;2022-09-20T18:27:31;5.00;;;1.40;;
14377;SDS011;7272;53.668;9.578;2022-09-20T18:30:33;2.47;;;1.43;;
14377;SDS011;7272;53.668;9.578;2022-09-20T18:33:35;1.93;;;1.20;;
14377;SDS011;7272;53.668;9.578;2022-09-20T18:36:39;3.35;;;1.70;;
14377;SDS011;7272;53.668;9.578;2022-09-20T18:39:42;4.00;;;1.40;;
14377;SDS011;7272;53.668;9.578;2022-09-20T18:42:45;2.67;;;1.30;;
14377;SDS011;7272;53.668;9.578;2022-09-20T18:45:49;3.43;;;1.33;;
14377;SDS011;7272;53.668;9.578;2022-09-20T18:48:54;3.17;;;1.40;;
14377;SDS011;7272;53.668;9.578;2022-09-20T18:51:58;3.50;;;1.30;;
14377;SDS011;7272;53.668;9.578;2022-09-20T18:55:00;1.83;;;1.20;;
14377;SDS011;7272;53.668;9.578;2022-09-20T18:58:07;3.75;;;1.52;;
14377;SDS011;7272;53.668;9.578;2022-09-20T19:01:16;2.30;;;1.17;;
14377;SDS011;7272;53.668;9.578;2022-09-20T19:04:52;4.03;;;1.40;;
14377;SDS011;7272;53.668;9.578;2022-09-20T19:08:09;2.77;;;1.30;;
14377;SDS011;7272;53.668;9.578;2022-09-20T19:11:24;2.60;;;1.30;;
14377;SDS011;7272;53.668;9.578;2022-09-20T19:14:32;3.77;;;1.30;;
14377;SDS011;7272;53.668;9.578;2022-09-20T19:17:49;1.83;;;1.30;;
14377;SDS011;7272;53.668;9.578;2022-09-20T19:21:01;2.50;;;1.30;;
14377;SDS011;7272;53.668;9.578;2022-09-20T19:24:14;4.10;;;1.70;;
14377;SDS011;7272;53.668;9.578;2022-09-20T19:27:25;3.67;;;1.53;;
14377;SDS011;7272;53.668;9.578;2022-09-20T19:30:27;3.77;;;1.40;;
14377;SDS011;7272;53.668;9.578;2022-09-20T19:33:30;2.73;;;1.30;;
14377;SDS011;7272;53.668;9.578;2022-09-20T19:36:34;5.50;;;1.30;;
14377;SDS011;7272;53.668;9.578;2022-09-20T19:39:50;3.47;;;1.47;;
14377;SDS011;7272;53.668;9.578;2022-09-20T19:43:07;3.83;;;1.60;;
14377;SDS011;7272;53.668;9.578;2022-09-20T19:46:30;4.05;;;1.70;;
14377;SDS011;7272;53.668;9.578;2022-09-20T19:49:43;3.05;;;1.95;;
14377;SDS011;7272;53.668;9.578;2022-09-20T19:52:52;3.83;;;1.60;;
14377;SDS011;7272;53.668;9.578;2022-09-20T19:55:58;2.23;;;1.43;;
14377;SDS011;7272;53.668;9.578;2022-09-20T19:59:03;3.27;;;1.37;;
14377;SDS011;7272;53.668;9.578;2022-09-20T20:02:07;4.27;;;1.40;;
14377;SDS011;7272;53.668;9.578;2022-09-20T20:05:10;2.87;;;1.40;;